TimeCST,TemperatureF,Dew PointF,Humidity,Sea Level PressureIn,VisibilityMPH,Wind Direction,Wind SpeedMPH,Gust SpeedMPH,PrecipitationIn,Events,Conditions,WindDirDegrees,DateUTC
12:54 AM,30.0,24.1,79,30.15,10.0,West,8.1,-,N/A,,Clear,280,2013-02-12 06:54:00
1:54 AM,28.9,23.0,78,30.16,9.0,West,6.9,-,N/A,,Clear,270,2013-02-12 07:54:00
2:54 AM,28.0,23.0,81,30.15,9.0,West,6.9,-,N/A,,Clear,280,2013-02-12 08:54:00
3:54 AM,28.0,23.0,81,30.15,8.0,West,4.6,-,N/A,,Clear,270,2013-02-12 09:54:00
4:54 AM,27.0,23.0,85,30.15,8.0,West,4.6,-,N/A,,Clear,270,2013-02-12 10:54:00
5:54 AM,27.0,23.0,85,30.14,7.0,WNW,5.8,-,N/A,,Clear,290,2013-02-12 11:54:00
6:54 AM,27.0,21.9,81,30.16,6.0,West,5.8,-,N/A,,Haze,280,2013-02-12 12:54:00
7:54 AM,28.9,24.1,82,30.15,5.0,West,3.5,-,N/A,,Haze,280,2013-02-12 13:54:00
8:54 AM,30.9,25.0,79,30.16,6.0,NW,6.9,-,N/A,,Haze,310,2013-02-12 14:54:00
9:54 AM,32.0,25.0,75,30.17,7.0,West,5.8,-,N/A,,Clear,270,2013-02-12 15:54:00
10:54 AM,33.1,25.0,72,30.13,7.0,NW,6.9,-,N/A,,Scattered Clouds,320,2013-02-12 16:54:00
11:54 AM,35.1,26.1,70,30.11,6.0,NW,6.9,-,N/A,,Haze,320,2013-02-12 17:54:00
12:54 PM,37.9,26.1,62,30.09,9.0,NW,6.9,-,N/A,,Clear,320,2013-02-12 18:54:00
1:54 PM,37.9,27.0,65,30.09,9.0,West,5.8,-,N/A,,Clear,280,2013-02-12 19:54:00
2:54 PM,37.9,26.1,62,30.08,9.0,Variable,6.9,-,N/A,,Clear,0,2013-02-12 20:54:00
3:54 PM,37.0,26.1,65,30.06,10.0,West,4.6,-,N/A,,Clear,270,2013-02-12 21:54:00
4:54 PM,36.0,25.0,64,30.03,10.0,NNW,3.5,-,N/A,,Clear,330,2013-02-12 22:54:00
5:54 PM,33.1,26.1,75,30.03,10.0,Calm,Calm,-,N/A,,Clear,0,2013-02-12 23:54:00
6:54 PM,33.1,27.0,78,30.01,9.0,Calm,Calm,-,N/A,,Clear,0,2013-02-13 00:54:00
7:54 PM,30.0,26.1,85,30.00,8.0,ENE,4.6,-,N/A,,Clear,60,2013-02-13 01:54:00
8:54 PM,30.9,28.0,89,29.99,6.0,NNE,3.5,-,N/A,,Clear,30,2013-02-13 02:54:00
9:54 PM,30.9,27.0,85,29.98,6.0,North,-9999.0,-,N/A,,Partly Cloudy,0,2013-02-13 03:54:00
10:54 PM,30.9,28.0,89,29.96,7.0,Calm,Calm,-,N/A,,Clear,0,2013-02-13 04:54:00
11:54 PM,30.9,28.0,89,29.96,6.0,North,-9999.0,-,N/A,,Clear,0,2013-02-13 05:54:00